Terminal Aerodrome Forecast
Issued by NWS

Home | Current Version | Previous Version | Text Only | Print | Product List | Glossary On
Versions: 1 2 3 4 5 6 7 8 9 10 11 12 13 14 15 16
000
FTUS43 KSGF 291700
TAFBBG
TAF
KBBG 291720Z 2918/3018 35005KT P6SM FEW050
     FM300100 VRB03KT P6SM FEW120 SCT200
     FM301200 VRB04KT P6SM VCSH BKN070 OVC150=

USA.gov is the U.S. government's official web portal to all federal, state and local government web resources and services.